Terminal Aerodrome Forecast
Issued by NWS

Home | Current Version | Previous Version | Text Only | Print | Product List | Glossary On
Versions: 1 2 3 4 5 6 7 8 9 10 11 12 13 14 15 16 17 18 19 20 21 22 23 24 25 26 27
000
FTUS43 KGRR 210025 AAA
TAFAZO
TAF AMD
KAZO 210025Z 2100/2124 06005KT P6SM BKN008 BKN015
     FM210130 03005KT P6SM BKN035
     FM210500 06006KT P6SM OVC015
     FM211000 07006KT P6SM OVC025
     FM211300 10010KT 5SM -RA BR OVC025
     FM212200 08010KT 5SM BR VCTS OVC015CB=

USA.gov is the U.S. government's official web portal to all federal, state and local government web resources and services.